Time;durP1;ratioP1;P1;durP2;ratioP2;P2;SDS_P1;SDS_P2;PMS_P1;PMS_P2;Temp;Humidity;BMP_temperature;BMP_pressure;BME280_temperature;BME280_humidity;BME280_pressure;Samples;Min_cycle;Max_cycle;Signal;HPM_P1;HPM_P2
2022/09/04 00:00:22;;;;;;;;;;;;;;;;;;2132510;27;19923;-43
2022/09/04 00:01:23;;;;;;;;;;;;;;;;;;2132366;27;19923;-43
2022/09/04 00:02:24;;;;;;;;;;;;;;;;;;2132550;27;20328;-43
2022/09/04 00:03:25;;;;;;;;;;;;;;;;;;2132584;27;19930;-43
2022/09/04 00:04:27;;;;;;;;;;;;;;;;;;2132406;27;20010;-43
2022/09/04 00:05:28;;;;;;;;;;;;;;;;;;2132455;27;19923;-44
2022/09/04 00:06:29;;;;;;;;;;;;;;;;;;2132365;27;20010;-43
2022/09/04 00:07:30;;;;;;;;;;;;;;;;;;2132429;27;19930;-43
2022/09/04 00:08:31;;;;;;;;;;;;;;;;;;2132589;27;19923;-43
2022/09/04 00:09:32;;;;;;;;;;;;;;;;;;2132445;27;19946;-44
2022/09/04 00:10:33;;;;;;;;;;;;;;;;;;2132675;27;19927;-43
2022/09/04 00:11:33;;;;;;;;;;;;;;;;;;2132101;27;19923;-43
2022/09/04 00:12:34;;;;;;;;;;;;;;;;;;2132371;27;19923;-43
2022/09/04 00:13:35;;;;;;;;;;;;;;;;;;2132591;27;19923;-43
2022/09/04 00:14:36;;;;;;;;;;;;;;;;;;2132501;27;19949;-44
2022/09/04 00:15:37;;;;;;;;;;;;;;;;;;2132329;27;20376;-44
2022/09/04 00:16:41;;;;;;;;;;;;;;;;;;2132352;27;19923;-43
2022/09/04 00:17:42;;;;;;;;;;;;;;;;;;2132428;27;19969;-44
2022/09/04 00:18:43;;;;;;;;;;;;;;;;;;2132252;27;19933;-44
2022/09/04 00:19:44;;;;;;;;;;;;;;;;;;2132413;27;19923;-43
2022/09/04 00:20:45;;;;;;;;;;;;;;;;;;2132439;27;19923;-43
2022/09/04 00:21:45;;;;;;;;;;;;;;;;;;2132355;27;20322;-43
2022/09/04 00:22:46;;;;;;;;;;;;;;;;;;2132373;27;19930;-44
2022/09/04 00:23:47;;;;;;;;;;;;;;;;;;2132495;27;19969;-45
2022/09/04 00:24:48;;;;;;;;;;;;;;;;;;2132290;27;20010;-43
2022/09/04 00:25:49;;;;;;;;;;;;;;;;;;2132299;27;20022;-44
2022/09/04 00:26:51;;;;;;;;;;;;;;;;;;2132224;27;19927;-43
2022/09/04 00:27:52;;;;;;;;;;;;;;;;;;2132266;27;20367;-43
2022/09/04 00:28:53;;;;;;;;;;;;;;;;;;2132312;27;19923;-44
2022/09/04 00:29:54;;;;;;;;;;;;;;;;;;2132200;27;19946;-44
2022/09/04 00:30:55;;;;;;;;;;;;;;;;;;2132350;27;19930;-43
2022/09/04 00:31:57;;;;;;;;;;;;;;;;;;2132152;27;20320;-44
2022/09/04 00:32:58;;;;;;;;;;;;;;;;;;2132429;27;19993;-43
2022/09/04 00:33:58;;;;;;;;;;;;;;;;;;2132353;27;20023;-43
2022/09/04 00:34:59;;;;;;;;;;;;;;;;;;2132350;27;19923;-44
2022/09/04 00:36:00;;;;;;;;;;;;;;;;;;2132300;27;20013;-44
2022/09/04 00:37:02;;;;;;;;;;;;;;;;;;2132292;27;19923;-44
2022/09/04 00:38:02;;;;;;;;;;;;;;;;;;2132267;27;20006;-43
2022/09/04 00:39:03;;;;;;;;;;;;;;;;;;2132112;27;20410;-43
2022/09/04 00:40:04;;;;;;;;;;;;;;;;;;2132193;27;20042;-43
2022/09/04 00:41:05;;;;;;;;;;;;;;;;;;2132201;27;19931;-44
2022/09/04 00:42:06;;;;;;;;;;;;;;;;;;2132255;27;20010;-43
2022/09/04 00:43:07;;;;;;;;;;;;;;;;;;2132080;27;20467;-44
2022/09/04 00:44:08;;;;;;;;;;;;;;;;;;2132309;27;20443;-44
2022/09/04 00:45:09;;;;;;;;;;;;;;;;;;2132210;27;20018;-44
2022/09/04 00:46:11;;;;;;;;;;;;;;;;;;2132207;27;19923;-43
2022/09/04 00:47:13;;;;;;;;;;;;;;;;;;2132115;27;20371;-43
2022/09/04 00:48:13;;;;;;;;;;;;;;;;;;2132233;27;19974;-43
2022/09/04 00:49:14;;;;;;;;;;;;;;;;;;2132349;27;19958;-44
2022/09/04 00:50:15;;;;;;;;;;;;;;;;;;2132069;27;20010;-43
2022/09/04 00:51:16;;;;;;;;;;;;;;;;;;2132192;27;19927;-43
2022/09/04 00:52:17;;;;;;;;;;;;;;;;;;2132125;27;19923;-44
2022/09/04 00:53:18;;;;;;;;;;;;;;;;;;2132135;27;19923;-43
2022/09/04 00:54:19;;;;;;;;;;;;;;;;;;2132118;27;20364;-43
2022/09/04 00:55:20;;;;;;;;;;;;;;;;;;2132193;27;20010;-43
2022/09/04 00:56:21;;;;;;;;;;;;;;;;;;2132023;27;20017;-43
2022/09/04 00:57:22;;;;;;;;;;;;;;;;;;2132236;27;20014;-43
2022/09/04 00:58:23;;;;;;;;;;;;;;;;;;2131925;27;20006;-43
2022/09/04 00:59:24;;;;;;;;;;;;;;;;;;2132159;27;20010;-43
2022/09/04 01:00:26;;;;;;;;;;;;;;;;;;2132231;27;19930;-44
2022/09/04 01:01:27;;;;;;;;;;;;;;;;;;2131058;27;19927;-43
2022/09/04 01:02:28;;;;;;;;;;;;;;;;;;2132093;27;19966;-43
2022/09/04 01:03:29;;;;;;;;;;;;;;;;;;2132029;27;19923;-43
2022/09/04 01:04:30;;;;;;;;;;;;;;;;;;2132181;27;19962;-43
2022/09/04 01:05:31;;;;;;;;;;;;;;;;;;2132020;27;20129;-43
2022/09/04 01:06:32;;;;;;;;;;;;;;;;;;2132143;27;20034;-43
2022/09/04 01:07:32;;;;;;;;;;;;;;;;;;2132198;27;19927;-43
2022/09/04 01:08:34;;;;;;;;;;;;;;;;;;2132124;27;19930;-44
2022/09/04 01:09:35;;;;;;;;;;;;;;;;;;2132027;27;19951;-43
2022/09/04 01:10:36;;;;;;;;;;;;;;;;;;2132249;27;19971;-44
2022/09/04 01:11:37;;;;;;;;;;;;;;;;;;2131891;27;20022;-43
2022/09/04 01:12:38;;;;;;;;;;;;;;;;;;2131951;27;20010;-43
2022/09/04 01:13:40;;;;;;;;;;;;;;;;;;2132235;27;19923;-44
2022/09/04 01:14:41;;;;;;;;;;;;;;;;;;2132056;27;19972;-45
2022/09/04 01:15:42;;;;;;;;;;;;;;;;;;2132018;27;20017;-44
2022/09/04 01:16:43;;;;;;;;;;;;;;;;;;2131886;27;19930;-43
2022/09/04 01:17:43;;;;;;;;;;;;;;;;;;2132134;27;19923;-43
2022/09/04 01:18:44;;;;;;;;;;;;;;;;;;2132031;27;19924;-44
2022/09/04 01:19:45;;;;;;;;;;;;;;;;;;2132062;27;19923;-44
2022/09/04 01:20:46;;;;;;;;;;;;;;;;;;2131953;27;19978;-43
2022/09/04 01:21:47;;;;;;;;;;;;;;;;;;2131847;27;20381;-44
2022/09/04 01:22:49;;;;;;;;;;;;;;;;;;2132047;27;19930;-43
2022/09/04 01:23:50;;;;;;;;;;;;;;;;;;2131954;27;20019;-43
2022/09/04 01:24:52;;;;;;;;;;;;;;;;;;2132055;27;19927;-43
2022/09/04 01:25:53;;;;;;;;;;;;;;;;;;2131901;27;20333;-44
2022/09/04 01:26:54;;;;;;;;;;;;;;;;;;2132009;27;19929;-44
2022/09/04 01:27:55;;;;;;;;;;;;;;;;;;2131910;27;19931;-44
2022/09/04 01:28:57;;;;;;;;;;;;;;;;;;2132036;27;20311;-43
2022/09/04 01:29:58;;;;;;;;;;;;;;;;;;2131869;27;19923;-43
2022/09/04 01:30:59;;;;;;;;;;;;;;;;;;2131879;27;20364;-43
2022/09/04 01:32:00;;;;;;;;;;;;;;;;;;2132023;27;20006;-43
2022/09/04 01:33:01;;;;;;;;;;;;;;;;;;2131865;27;19923;-44
2022/09/04 01:34:02;;;;;;;;;;;;;;;;;;2131998;27;20286;-44
2022/09/04 01:35:03;;;;;;;;;;;;;;;;;;2131850;27;20014;-43
2022/09/04 01:36:04;;;;;;;;;;;;;;;;;;2132032;27;19970;-44
2022/09/04 01:37:05;;;;;;;;;;;;;;;;;;2131879;27;19923;-44
2022/09/04 01:38:05;;;;;;;;;;;;;;;;;;2131828;27;19928;-43
2022/09/04 01:39:06;;;;;;;;;;;;;;;;;;2131727;27;19954;-43
2022/09/04 01:40:07;;;;;;;;;;;;;;;;;;2131784;27;19923;-43
2022/09/04 01:41:09;;;;;;;;;;;;;;;;;;2131842;27;19923;-44
2022/09/04 01:42:09;;;;;;;;;;;;;;;;;;2131833;27;19923;-43
2022/09/04 01:43:10;;;;;;;;;;;;;;;;;;2131914;27;19948;-44
2022/09/04 01:44:11;;;;;;;;;;;;;;;;;;2131833;27;19923;-43
2022/09/04 01:45:12;;;;;;;;;;;;;;;;;;2131996;27;20276;-44
2022/09/04 01:46:13;;;;;;;;;;;;;;;;;;2131797;27;20401;-43
2022/09/04 01:47:14;;;;;;;;;;;;;;;;;;2131949;27;19930;-43
2022/09/04 01:48:15;;;;;;;;;;;;;;;;;;2131781;27;19927;-44
2022/09/04 01:49:19;;;;;;;;;;;;;;;;;;2131949;27;20022;-43
2022/09/04 01:50:20;;;;;;;;;;;;;;;;;;2131910;27;20009;-43
2022/09/04 01:51:21;;;;;;;;;;;;;;;;;;2131693;27;20014;-43
2022/09/04 01:52:22;;;;;;;;;;;;;;;;;;2131728;27;20010;-43
2022/09/04 01:53:23;;;;;;;;;;;;;;;;;;2131756;27;20412;-45
2022/09/04 01:54:24;;;;;;;;;;;;;;;;;;2131626;27;20306;-43
2022/09/04 01:55:25;;;;;;;;;;;;;;;;;;2131757;27;19930;-44
2022/09/04 01:56:25;;;;;;;;;;;;;;;;;;2131701;27;19922;-43
2022/09/04 01:57:27;;;;;;;;;;;;;;;;;;2131791;27;20428;-44
2022/09/04 01:58:28;;;;;;;;;;;;;;;;;;2131704;27;20343;-44
2022/09/04 01:59:28;;;;;;;;;;;;;;;;;;2131735;27;19929;-43
2022/09/04 02:00:30;;;;;;;;;;;;;;;;;;2131711;27;19955;-44
2022/09/04 02:01:30;;;;;;;;;;;;;;;;;;2131769;27;19927;-44
2022/09/04 02:02:31;;;;;;;;;;;;;;;;;;2131891;27;19923;-45
2022/09/04 02:03:32;;;;;;;;;;;;;;;;;;2131743;27;19931;-43
2022/09/04 02:04:33;;;;;;;;;;;;;;;;;;2131868;27;19923;-44
2022/09/04 02:05:34;;;;;;;;;;;;;;;;;;2131725;27;20005;-44
2022/09/04 02:06:35;;;;;;;;;;;;;;;;;;2131601;27;20067;-44
2022/09/04 02:07:36;;;;;;;;;;;;;;;;;;2131664;27;20450;-44
2022/09/04 02:08:37;;;;;;;;;;;;;;;;;;2131782;27;19939;-45
2022/09/04 02:09:37;;;;;;;;;;;;;;;;;;2131708;27;19927;-43
2022/09/04 02:10:38;;;;;;;;;;;;;;;;;;2131608;27;19923;-44
2022/09/04 02:11:39;;;;;;;;;;;;;;;;;;2131579;27;19968;-44
2022/09/04 02:12:41;;;;;;;;;;;;;;;;;;2132212;27;19929;-44
2022/09/04 02:13:43;;;;;;;;;;;;;;;;;;2133174;27;20128;-43
2022/09/04 02:14:44;;;;;;;;;;;;;;;;;;2133214;27;20064;-43
2022/09/04 02:15:46;;;;;;;;;;;;;;;;;;2133150;27;19923;-43
2022/09/04 02:16:47;;;;;;;;;;;;;;;;;;2133093;27;20353;-44
2022/09/04 02:17:49;;;;;;;;;;;;;;;;;;2133119;27;20005;-43
2022/09/04 02:18:51;;;;;;;;;;;;;;;;;;2133319;27;20474;-43
2022/09/04 02:19:51;;;;;;;;;;;;;;;;;;2133103;27;20227;-44
2022/09/04 02:20:52;;;;;;;;;;;;;;;;;;2133183;27;19929;-43
2022/09/04 02:21:53;;;;;;;;;;;;;;;;;;2133156;27;20014;-43
2022/09/04 02:22:54;;;;;;;;;;;;;;;;;;2133260;27;19923;-44
2022/09/04 02:23:55;;;;;;;;;;;;;;;;;;2133095;27;20006;-43
2022/09/04 02:24:56;;;;;;;;;;;;;;;;;;2133230;27;19930;-45
2022/09/04 02:25:57;;;;;;;;;;;;;;;;;;2133055;27;20055;-44
2022/09/04 02:26:58;;;;;;;;;;;;;;;;;;2133074;27;19972;-43
2022/09/04 02:27:58;;;;;;;;;;;;;;;;;;2133091;27;20021;-43
2022/09/04 02:28:59;;;;;;;;;;;;;;;;;;2133121;27;19923;-43
2022/09/04 02:30:00;;;;;;;;;;;;;;;;;;2133108;27;20336;-43
2022/09/04 02:31:01;;;;;;;;;;;;;;;;;;2133139;27;19971;-43
2022/09/04 02:32:02;;;;;;;;;;;;;;;;;;2133137;27;20001;-43
2022/09/04 02:33:04;;;;;;;;;;;;;;;;;;2133077;27;19923;-44
2022/09/04 02:34:05;;;;;;;;;;;;;;;;;;2133259;27;19975;-44
2022/09/04 02:35:08;;;;;;;;;;;;;;;;;;2133094;27;19968;-44
2022/09/04 02:36:09;;;;;;;;;;;;;;;;;;2133056;27;19966;-44
2022/09/04 02:37:10;;;;;;;;;;;;;;;;;;2132951;27;20439;-44
2022/09/04 02:38:11;;;;;;;;;;;;;;;;;;2133026;27;19963;-43
2022/09/04 02:39:12;;;;;;;;;;;;;;;;;;2133091;27;20003;-44
2022/09/04 02:40:13;;;;;;;;;;;;;;;;;;2132998;27;19930;-44
2022/09/04 02:41:14;;;;;;;;;;;;;;;;;;2133122;27;19931;-45
2022/09/04 02:42:16;;;;;;;;;;;;;;;;;;2133072;27;19954;-43
2022/09/04 02:43:18;;;;;;;;;;;;;;;;;;2133117;27;19929;-43
2022/09/04 02:44:19;;;;;;;;;;;;;;;;;;2133031;27;20472;-44
2022/09/04 02:45:20;;;;;;;;;;;;;;;;;;2133013;27;19942;-44
2022/09/04 02:46:20;;;;;;;;;;;;;;;;;;2133064;27;19972;-44
2022/09/04 02:47:22;;;;;;;;;;;;;;;;;;2132899;27;19923;-43
2022/09/04 02:48:22;;;;;;;;;;;;;;;;;;2132908;27;19962;-44
2022/09/04 02:49:24;;;;;;;;;;;;;;;;;;2133008;27;20014;-44
2022/09/04 02:50:25;;;;;;;;;;;;;;;;;;2132923;27;19923;-44
2022/09/04 02:51:26;;;;;;;;;;;;;;;;;;2132910;27;20009;-43
2022/09/04 02:52:26;;;;;;;;;;;;;;;;;;2132923;27;19938;-44
2022/09/04 02:53:27;;;;;;;;;;;;;;;;;;2133138;27;19979;-43
2022/09/04 02:54:28;;;;;;;;;;;;;;;;;;2133046;27;19923;-44
2022/09/04 02:55:29;;;;;;;;;;;;;;;;;;2132879;27;19983;-44
2022/09/04 02:56:30;;;;;;;;;;;;;;;;;;2133053;27;21311;-45
2022/09/04 02:57:32;;;;;;;;;;;;;;;;;;2132905;27;20383;-43
2022/09/04 02:58:33;;;;;;;;;;;;;;;;;;2132948;27;19930;-43
2022/09/04 02:59:34;;;;;;;;;;;;;;;;;;2132854;27;19923;-47
2022/09/04 03:00:35;;;;;;;;;;;;;;;;;;2132882;27;20459;-45
2022/09/04 03:01:36;;;;;;;;;;;;;;;;;;2133088;27;19930;-44
2022/09/04 03:02:36;;;;;;;;;;;;;;;;;;2133011;27;19923;-44
2022/09/04 03:03:37;;;;;;;;;;;;;;;;;;2132982;27;19933;-44
2022/09/04 03:04:38;;;;;;;;;;;;;;;;;;2132844;27;19949;-44
2022/09/04 03:05:40;;;;;;;;;;;;;;;;;;2132842;27;19975;-45
2022/09/04 03:06:41;;;;;;;;;;;;;;;;;;2133298;27;19969;-41
2022/09/04 03:07:42;;;;;;;;;;;;;;;;;;2132814;27;19971;-41
2022/09/04 03:08:43;;;;;;;;;;;;;;;;;;2133024;27;20013;-40
2022/09/04 03:09:44;;;;;;;;;;;;;;;;;;2132807;27;19979;-40
2022/09/04 03:10:45;;;;;;;;;;;;;;;;;;2133008;27;19962;-40
2022/09/04 03:11:46;;;;;;;;;;;;;;;;;;2132560;27;19952;-41
2022/09/04 03:12:47;;;;;;;;;;;;;;;;;;2132913;27;19934;-40
2022/09/04 03:13:48;;;;;;;;;;;;;;;;;;2132826;27;19987;-40
2022/09/04 03:14:49;;;;;;;;;;;;;;;;;;2132776;27;19954;-40
2022/09/04 03:15:50;;;;;;;;;;;;;;;;;;2132758;27;20434;-40
2022/09/04 03:16:50;;;;;;;;;;;;;;;;;;2132868;27;19923;-40
2022/09/04 03:17:51;;;;;;;;;;;;;;;;;;2132785;27;20455;-40
2022/09/04 03:18:52;;;;;;;;;;;;;;;;;;2132724;27;19923;-40
2022/09/04 03:19:53;;;;;;;;;;;;;;;;;;2132705;27;19923;-40
2022/09/04 03:20:54;;;;;;;;;;;;;;;;;;2132747;27;20056;-40
2022/09/04 03:21:55;;;;;;;;;;;;;;;;;;2133159;27;20002;-41
2022/09/04 03:22:56;;;;;;;;;;;;;;;;;;2132803;27;20072;-44
2022/09/04 03:23:57;;;;;;;;;;;;;;;;;;2132561;27;19999;-45
2022/09/04 03:24:57;;;;;;;;;;;;;;;;;;2132247;27;20295;-44
2022/09/04 03:25:58;;;;;;;;;;;;;;;;;;2132714;27;19923;-43
2022/09/04 03:26:59;;;;;;;;;;;;;;;;;;2132716;27;19954;-44
2022/09/04 03:28:00;;;;;;;;;;;;;;;;;;2132680;27;20419;-44
2022/09/04 03:29:01;;;;;;;;;;;;;;;;;;2132688;27;20063;-44
2022/09/04 03:30:02;;;;;;;;;;;;;;;;;;2132888;27;20018;-40
2022/09/04 03:31:03;;;;;;;;;;;;;;;;;;2132794;27;20026;-40
2022/09/04 03:32:04;;;;;;;;;;;;;;;;;;2132813;27;20398;-40
2022/09/04 03:33:16;;;;;;;;;;;;;;;;;;2132729;27;20371;-40
2022/09/04 03:34:17;;;;;;;;;;;;;;;;;;2132644;27;19934;-40
2022/09/04 03:35:17;;;;;;;;;;;;;;;;;;2132771;27;19927;-40
2022/09/04 03:36:18;;;;;;;;;;;;;;;;;;2132608;27;19946;-40
2022/09/04 03:37:19;;;;;;;;;;;;;;;;;;2132789;27;19930;-41
2022/09/04 03:38:20;;;;;;;;;;;;;;;;;;2132649;27;19923;-40
2022/09/04 03:39:21;;;;;;;;;;;;;;;;;;2132712;27;19930;-40
2022/09/04 03:40:22;;;;;;;;;;;;;;;;;;2132903;27;20295;-41
2022/09/04 03:41:29;;;;;;;;;;;;;;;;;;2132520;27;19923;-41
2022/09/04 03:42:30;;;;;;;;;;;;;;;;;;2132627;27;20010;-41
2022/09/04 03:43:30;;;;;;;;;;;;;;;;;;2132561;27;19938;-41
2022/09/04 03:44:31;;;;;;;;;;;;;;;;;;2132534;27;19923;-40
2022/09/04 03:45:32;;;;;;;;;;;;;;;;;;2132551;27;20025;-40
2022/09/04 03:46:33;;;;;;;;;;;;;;;;;;2132307;27;19931;-41
2022/09/04 03:47:34;;;;;;;;;;;;;;;;;;2132679;27;19923;-40
2022/09/04 03:48:35;;;;;;;;;;;;;;;;;;2132549;27;19991;-40
2022/09/04 03:49:37;;;;;;;;;;;;;;;;;;2132856;27;19966;-40
2022/09/04 03:50:38;;;;;;;;;;;;;;;;;;2132580;27;20455;-41
2022/09/04 03:51:39;;;;;;;;;;;;;;;;;;2132589;27;20017;-41
2022/09/04 03:52:40;;;;;;;;;;;;;;;;;;2132503;27;20413;-40
2022/09/04 03:53:40;;;;;;;;;;;;;;;;;;2132651;27;19927;-40
2022/09/04 03:54:41;;;;;;;;;;;;;;;;;;2132577;27;19923;-41
2022/09/04 03:55:43;;;;;;;;;;;;;;;;;;2132650;27;20010;-40
2022/09/04 03:56:44;;;;;;;;;;;;;;;;;;2132390;27;20011;-41
2022/09/04 03:57:45;;;;;;;;;;;;;;;;;;2132732;27;19927;-40
2022/09/04 03:58:46;;;;;;;;;;;;;;;;;;2132406;27;19978;-41
2022/09/04 03:59:47;;;;;;;;;;;;;;;;;;2132405;27;19927;-41
2022/09/04 04:00:48;;;;;;;;;;;;;;;;;;2132509;27;20395;-40
2022/09/04 04:01:49;;;;;;;;;;;;;;;;;;2132520;27;19923;-40
2022/09/04 04:02:50;;;;;;;;;;;;;;;;;;2132608;27;20417;-40
2022/09/04 04:03:51;;;;;;;;;;;;;;;;;;2132461;27;19923;-40
2022/09/04 04:04:52;;;;;;;;;;;;;;;;;;2132776;27;19926;-40
2022/09/04 04:05:52;;;;;;;;;;;;;;;;;;2132518;27;20006;-40
2022/09/04 04:06:53;;;;;;;;;;;;;;;;;;2132365;27;20410;-41
2022/09/04 04:07:54;;;;;;;;;;;;;;;;;;2132416;27;20105;-41
2022/09/04 04:08:55;;;;;;;;;;;;;;;;;;2132575;27;19923;-41
2022/09/04 04:09:56;;;;;;;;;;;;;;;;;;2132505;27;19927;-40
2022/09/04 04:10:57;;;;;;;;;;;;;;;;;;2132549;27;19962;-40
2022/09/04 04:11:58;;;;;;;;;;;;;;;;;;2132220;27;20352;-40
2022/09/04 04:12:59;;;;;;;;;;;;;;;;;;2132442;27;20439;-40
2022/09/04 04:14:00;;;;;;;;;;;;;;;;;;2132442;27;19937;-41
2022/09/04 04:15:02;;;;;;;;;;;;;;;;;;2132606;27;19911;-44
2022/09/04 04:16:03;;;;;;;;;;;;;;;;;;2132510;27;19952;-43
2022/09/04 04:17:04;;;;;;;;;;;;;;;;;;2132206;27;20055;-44
2022/09/04 04:18:05;;;;;;;;;;;;;;;;;;2132695;27;20336;-40
2022/09/04 04:19:09;;;;;;;;;;;;;;;;;;2132412;27;19972;-40
2022/09/04 04:20:10;;;;;;;;;;;;;;;;;;2132386;27;19923;-40
2022/09/04 04:21:11;;;;;;;;;;;;;;;;;;2132258;27;19923;-40
2022/09/04 04:22:12;;;;;;;;;;;;;;;;;;2132461;27;20010;-40
2022/09/04 04:23:14;;;;;;;;;;;;;;;;;;2132362;27;19985;-40
2022/09/04 04:24:15;;;;;;;;;;;;;;;;;;2132440;27;20013;-40
2022/09/04 04:25:16;;;;;;;;;;;;;;;;;;2132703;27;19942;-41
2022/09/04 04:26:17;;;;;;;;;;;;;;;;;;2132457;27;19934;-40
2022/09/04 04:27:21;;;;;;;;;;;;;;;;;;2132359;27;19969;-41
2022/09/04 04:28:23;;;;;;;;;;;;;;;;;;2132234;27;19923;-41
2022/09/04 04:29:24;;;;;;;;;;;;;;;;;;2132342;27;20018;-40
2022/09/04 04:30:25;;;;;;;;;;;;;;;;;;2132670;27;20018;-43
2022/09/04 04:31:26;;;;;;;;;;;;;;;;;;2132178;27;19926;-45
2022/09/04 04:32:27;;;;;;;;;;;;;;;;;;2132346;27;19927;-44
2022/09/04 04:33:29;;;;;;;;;;;;;;;;;;2132355;27;20369;-44
2022/09/04 04:34:30;;;;;;;;;;;;;;;;;;2132241;27;20450;-44
2022/09/04 04:35:31;;;;;;;;;;;;;;;;;;2132278;27;19977;-41
2022/09/04 04:36:32;;;;;;;;;;;;;;;;;;2131231;27;20395;-41
2022/09/04 04:37:33;;;;;;;;;;;;;;;;;;2132235;27;19923;-41
2022/09/04 04:38:34;;;;;;;;;;;;;;;;;;2132395;27;19923;-41
2022/09/04 04:39:35;;;;;;;;;;;;;;;;;;2132223;27;20268;-41
2022/09/04 04:40:36;;;;;;;;;;;;;;;;;;2132150;27;19975;-41
2022/09/04 04:42:03;;;;;;;;;;;;;;;;;;2132192;27;19923;-41
2022/09/04 04:43:00;;;;;;;;;;;;;;;;;;2131939;27;20018;-40
2022/09/04 04:44:01;;;;;;;;;;;;;;;;;;2132245;27;20021;-41
2022/09/04 04:46:21;;;;;;;;;;;;;;;;;;2132130;27;20221;-40
2022/09/04 04:47:22;;;;;;;;;;;;;;;;;;2132200;27;20367;-41
2022/09/04 04:48:23;;;;;;;;;;;;;;;;;;2132221;27;19923;-41
2022/09/04 04:49:25;;;;;;;;;;;;;;;;;;2132317;27;19946;-41
2022/09/04 04:50:26;;;;;;;;;;;;;;;;;;2132280;27;20017;-41
2022/09/04 04:51:30;;;;;;;;;;;;;;;;;;2132148;27;20302;-41
2022/09/04 04:52:31;;;;;;;;;;;;;;;;;;2132104;27;20006;-41
2022/09/04 04:53:32;;;;;;;;;;;;;;;;;;2132197;27;19929;-41
2022/09/04 04:54:33;;;;;;;;;;;;;;;;;;2132382;27;19930;-41
2022/09/04 04:55:34;;;;;;;;;;;;;;;;;;2132115;27;19975;-41
2022/09/04 04:56:34;;;;;;;;;;;;;;;;;;2132215;27;20006;-40
2022/09/04 04:57:35;;;;;;;;;;;;;;;;;;2132098;27;20440;-40
2022/09/04 04:58:36;;;;;;;;;;;;;;;;;;2132209;27;19972;-40
2022/09/04 04:59:37;;;;;;;;;;;;;;;;;;2131984;27;19967;-41
2022/09/04 05:00:38;;;;;;;;;;;;;;;;;;2132283;27;20005;-40
2022/09/04 05:01:42;;;;;;;;;;;;;;;;;;2132061;27;20006;-40
2022/09/04 05:02:44;;;;;;;;;;;;;;;;;;2132186;27;19923;-42
2022/09/04 05:03:45;;;;;;;;;;;;;;;;;;2132063;27;19962;-41
2022/09/04 05:04:46;;;;;;;;;;;;;;;;;;2132149;27;20014;-40
2022/09/04 05:05:48;;;;;;;;;;;;;;;;;;2132053;27;19934;-40
2022/09/04 05:06:49;;;;;;;;;;;;;;;;;;2131952;27;20010;-40
2022/09/04 05:07:51;;;;;;;;;;;;;;;;;;2132023;27;19971;-40
2022/09/04 05:08:52;;;;;;;;;;;;;;;;;;2132014;27;20066;-40
2022/09/04 05:09:53;;;;;;;;;;;;;;;;;;2132056;27;20022;-41
2022/09/04 05:10:53;;;;;;;;;;;;;;;;;;2132010;27;20009;-40
2022/09/04 05:11:54;;;;;;;;;;;;;;;;;;2131769;27;19924;-41
2022/09/04 05:12:55;;;;;;;;;;;;;;;;;;2132077;27;20017;-40
2022/09/04 05:13:56;;;;;;;;;;;;;;;;;;2131963;27;20265;-40
2022/09/04 05:14:57;;;;;;;;;;;;;;;;;;2131966;27;20439;-40
2022/09/04 05:15:58;;;;;;;;;;;;;;;;;;2131950;27;19923;-41
2022/09/04 05:17:09;;;;;;;;;;;;;;;;;;2131933;27;20272;-41
2022/09/04 05:18:10;;;;;;;;;;;;;;;;;;2132106;27;19930;-43
2022/09/04 05:19:11;;;;;;;;;;;;;;;;;;2131930;27;19923;-43
2022/09/04 05:20:12;;;;;;;;;;;;;;;;;;2131878;27;20380;-44
2022/09/04 05:21:13;;;;;;;;;;;;;;;;;;2132014;27;19988;-43
2022/09/04 05:22:14;;;;;;;;;;;;;;;;;;2131983;27;19923;-44
2022/09/04 05:23:15;;;;;;;;;;;;;;;;;;2131936;27;20312;-44
2022/09/04 05:24:16;;;;;;;;;;;;;;;;;;2132054;27;19939;-43
2022/09/04 05:25:16;;;;;;;;;;;;;;;;;;2132046;27;19962;-43
2022/09/04 05:26:18;;;;;;;;;;;;;;;;;;2131915;27;19927;-45
2022/09/04 05:27:18;;;;;;;;;;;;;;;;;;2132246;27;19927;-43
2022/09/04 05:28:19;;;;;;;;;;;;;;;;;;2131837;27;20383;-43
2022/09/04 05:29:20;;;;;;;;;;;;;;;;;;2131866;27;20005;-44
2022/09/04 05:30:23;;;;;;;;;;;;;;;;;;2132119;27;19923;-41
2022/09/04 05:31:23;;;;;;;;;;;;;;;;;;2131834;27;19937;-41
2022/09/04 05:32:24;;;;;;;;;;;;;;;;;;2132040;27;19923;-41
2022/09/04 05:33:25;;;;;;;;;;;;;;;;;;2132029;27;19992;-44
2022/09/04 05:34:26;;;;;;;;;;;;;;;;;;2131885;27;20165;-44
2022/09/04 05:35:27;;;;;;;;;;;;;;;;;;2131960;27;19933;-43
2022/09/04 05:36:36;;;;;;;;;;;;;;;;;;2131958;27;19923;-43
2022/09/04 05:37:37;;;;;;;;;;;;;;;;;;2131792;27;20027;-44
2022/09/04 05:38:38;;;;;;;;;;;;;;;;;;2131952;27;19970;-44
2022/09/04 05:39:38;;;;;;;;;;;;;;;;;;2131821;27;19923;-44
2022/09/04 05:40:40;;;;;;;;;;;;;;;;;;2131795;27;20406;-44
2022/09/04 05:41:40;;;;;;;;;;;;;;;;;;2131948;27;19923;-44
2022/09/04 05:42:41;;;;;;;;;;;;;;;;;;2131818;27;19923;-43
2022/09/04 05:43:42;;;;;;;;;;;;;;;;;;2131896;27;19927;-43
2022/09/04 05:44:43;;;;;;;;;;;;;;;;;;2132053;27;20366;-40
2022/09/04 05:45:44;;;;;;;;;;;;;;;;;;2131998;27;19929;-45
2022/09/04 05:46:45;;;;;;;;;;;;;;;;;;2131783;27;19923;-43
2022/09/04 05:47:45;;;;;;;;;;;;;;;;;;2131409;27;19923;-43
2022/09/04 05:48:46;;;;;;;;;;;;;;;;;;2131839;27;20014;-43
2022/09/04 05:49:47;;;;;;;;;;;;;;;;;;2131827;27;20007;-44
2022/09/04 05:50:48;;;;;;;;;;;;;;;;;;2131782;27;19923;-45
2022/09/04 05:51:49;;;;;;;;;;;;;;;;;;2131737;27;19971;-43
2022/09/04 05:52:50;;;;;;;;;;;;;;;;;;2131870;27;19927;-43
2022/09/04 05:53:51;;;;;;;;;;;;;;;;;;2131706;27;20023;-43
2022/09/04 05:54:52;;;;;;;;;;;;;;;;;;2131776;27;19945;-43
2022/09/04 05:55:52;;;;;;;;;;;;;;;;;;2131735;27;20067;-43
2022/09/04 05:56:53;;;;;;;;;;;;;;;;;;2131720;27;19923;-43
2022/09/04 05:57:54;;;;;;;;;;;;;;;;;;2131963;27;19974;-41
2022/09/04 05:58:55;;;;;;;;;;;;;;;;;;2131718;27;19923;-41
2022/09/04 05:59:56;;;;;;;;;;;;;;;;;;2131768;27;19927;-41
2022/09/04 06:00:59;;;;;;;;;;;;;;;;;;2131769;27;19927;-41
2022/09/04 06:02:00;;;;;;;;;;;;;;;;;;2131671;27;20006;-42
2022/09/04 06:03:01;;;;;;;;;;;;;;;;;;2131896;27;19924;-42
2022/09/04 06:04:02;;;;;;;;;;;;;;;;;;2131823;27;19923;-42
2022/09/04 06:05:03;;;;;;;;;;;;;;;;;;2131815;27;19963;-42
2022/09/04 06:06:04;;;;;;;;;;;;;;;;;;2131872;27;20010;-42
2022/09/04 06:07:05;;;;;;;;;;;;;;;;;;2131685;27;20394;-42
2022/09/04 06:08:06;;;;;;;;;;;;;;;;;;2131691;27;19929;-42
2022/09/04 06:09:07;;;;;;;;;;;;;;;;;;2131781;27;19950;-42
2022/09/04 06:10:08;;;;;;;;;;;;;;;;;;2132529;27;19927;-42
2022/09/04 06:11:08;;;;;;;;;;;;;;;;;;2131495;27;20450;-42
2022/09/04 06:12:09;;;;;;;;;;;;;;;;;;2131782;27;19931;-42
2022/09/04 06:13:12;;;;;;;;;;;;;;;;;;2131721;27;19967;-42
2022/09/04 06:14:13;;;;;;;;;;;;;;;;;;2131903;27;20006;-40
2022/09/04 06:15:13;;;;;;;;;;;;;;;;;;2131681;27;19923;-41
2022/09/04 06:16:14;;;;;;;;;;;;;;;;;;2131570;27;19923;-41
2022/09/04 06:17:15;;;;;;;;;;;;;;;;;;2131972;27;20001;-43
2022/09/04 06:18:16;;;;;;;;;;;;;;;;;;2131638;27;20376;-43
2022/09/04 06:19:17;;;;;;;;;;;;;;;;;;2131749;27;19974;-42
2022/09/04 06:20:18;;;;;;;;;;;;;;;;;;2131643;27;20017;-43
2022/09/04 06:21:19;;;;;;;;;;;;;;;;;;2131880;27;19923;-43
2022/09/04 06:22:21;;;;;;;;;;;;;;;;;;2131918;27;20015;-41
2022/09/04 06:23:22;;;;;;;;;;;;;;;;;;2131513;27;20022;-42
2022/09/04 06:24:23;;;;;;;;;;;;;;;;;;2131658;27;19923;-42
2022/09/04 06:25:24;;;;;;;;;;;;;;;;;;2131603;27;20358;-41
2022/09/04 06:26:25;;;;;;;;;;;;;;;;;;2131676;27;19968;-41
2022/09/04 06:27:25;;;;;;;;;;;;;;;;;;2131776;27;19924;-42
2022/09/04 06:28:26;;;;;;;;;;;;;;;;;;2131606;27;19952;-41
2022/09/04 06:29:27;;;;;;;;;;;;;;;;;;2131759;27;20038;-42
2022/09/04 06:30:28;;;;;;;;;;;;;;;;;;2131902;27;20013;-45
2022/09/04 06:31:29;;;;;;;;;;;;;;;;;;2131606;27;20422;-44
2022/09/04 06:32:30;;;;;;;;;;;;;;;;;;2131574;27;19923;-44
2022/09/04 06:33:31;;;;;;;;;;;;;;;;;;2131464;27;20001;-44
2022/09/04 06:34:32;;;;;;;;;;;;;;;;;;2131499;27;19923;-44
2022/09/04 06:35:33;;;;;;;;;;;;;;;;;;2131586;27;19962;-43
2022/09/04 06:36:34;;;;;;;;;;;;;;;;;;2131493;27;19923;-44
2022/09/04 06:37:35;;;;;;;;;;;;;;;;;;2131525;27;19977;-43
2022/09/04 06:38:36;;;;;;;;;;;;;;;;;;2131891;27;19923;-43
2022/09/04 06:39:37;;;;;;;;;;;;;;;;;;2131490;27;19930;-44
2022/09/04 06:40:38;;;;;;;;;;;;;;;;;;2131572;27;19966;-46
2022/09/04 06:41:38;;;;;;;;;;;;;;;;;;2131671;27;19923;-44
2022/09/04 06:42:39;;;;;;;;;;;;;;;;;;2131617;27;19960;-44
2022/09/04 06:43:40;;;;;;;;;;;;;;;;;;2131870;27;20010;-43
2022/09/04 06:44:41;;;;;;;;;;;;;;;;;;2131650;27;20253;-45
2022/09/04 06:45:42;;;;;;;;;;;;;;;;;;2131541;27;19923;-46
2022/09/04 06:46:43;;;;;;;;;;;;;;;;;;2131604;27;19923;-45
2022/09/04 06:47:44;;;;;;;;;;;;;;;;;;2132286;27;20318;-44
2022/09/04 06:48:46;;;;;;;;;;;;;;;;;;2131715;27;20380;-42
2022/09/04 06:49:46;;;;;;;;;;;;;;;;;;2131529;27;20009;-42
2022/09/04 06:50:47;;;;;;;;;;;;;;;;;;2131634;27;19927;-42
2022/09/04 06:51:51;;;;;;;;;;;;;;;;;;2132230;27;19923;-42
2022/09/04 06:52:52;;;;;;;;;;;;;;;;;;2131653;27;20010;-42
2022/09/04 06:53:52;;;;;;;;;;;;;;;;;;2131655;27;20010;-42
2022/09/04 06:54:54;;;;;;;;;;;;;;;;;;2131948;27;19964;-44
2022/09/04 06:55:54;;;;;;;;;;;;;;;;;;2131753;27;20010;-42
2022/09/04 06:56:55;;;;;;;;;;;;;;;;;;2131416;27;20394;-43
2022/09/04 06:57:56;;;;;;;;;;;;;;;;;;2131671;27;19973;-42
2022/09/04 06:58:57;;;;;;;;;;;;;;;;;;2131877;27;19927;-42